Station Historical Data
Daily Summary for February 28, 2018 Units:  English    Metric   Both
« Previous Day
Next Day »
Daily Weekly Monthly Yearly Custom
  High: Low: Average:
Temperature: 60.4 °F 35.5 °F 45.4 °F
Dew Point: 42.9 °F 22.7 °F 32.7 °F
Humidity: 88% 37% 63%
Wind Speed: 19.0mph 0.0mph 4.4mph
Wind Gust: 27.0mph - -
Wind- - SW
Pressure: 30.07 in 29.81 in -
Precipitation: 0.00 in    
Historical Graphs
 
 
Tabular Data for February 28, 2018
Time Temperature Dew Point Pressure Wind Wind Speed Wind Gust Humidity Rainfall Rate (Hourly)
00:04 39.6 °F 24.3 °F 30.06 in SSW 1.0 mph 3.0 mph 54% 0.00 in
00:09 40.2 °F 24.4 °F 30.06 in SSW 1.0 mph 4.0 mph 53% 0.00 in
00:14 41.3 °F 24.5 °F 30.06 in Calm   5.0 mph 51% 0.00 in
00:19 42.0 °F 24.7 °F 30.06 in SSW 3.0 mph 5.0 mph 50% 0.00 in
00:24 42.8 °F 24.4 °F 30.06 in SSW 3.0 mph 5.0 mph 48% 0.00 in
00:29 43.2 °F 24.3 °F 30.07 in SSW 2.0 mph 4.0 mph 47% 0.00 in
00:34 43.4 °F 24.5 °F 30.06 in Calm   6.0 mph 47% 0.00 in
00:39 43.4 °F 24.5 °F 30.06 in SSW 3.0 mph 4.0 mph 47% 0.00 in
00:44 43.5 °F 24.1 °F 30.06 in SSW 2.0 mph 5.0 mph 46% 0.00 in
00:49 43.7 °F 24.2 °F 30.06 in SSW 2.0 mph 6.0 mph 46% 0.00 in
00:54 43.5 °F 24.1 °F 30.06 in SSW 2.0 mph 6.0 mph 46% 0.00 in
00:59 43.7 °F 24.2 °F 30.06 in SSW 1.0 mph 7.0 mph 46% 0.00 in
01:04 43.7 °F 24.2 °F 30.06 in SSW 2.0 mph 5.0 mph 46% 0.00 in
01:09 43.8 °F 24.3 °F 30.06 in SSW 3.0 mph 6.0 mph 46% 0.00 in
01:14 43.9 °F 24.4 °F 30.06 in SSW 1.0 mph 6.0 mph 46% 0.00 in
01:19 44.0 °F 24.0 °F 30.05 in SSW 2.0 mph 6.0 mph 45% 0.00 in
01:24 43.9 °F 24.4 °F 30.05 in SSW 2.0 mph 5.0 mph 46% 0.00 in
01:29 43.7 °F 24.2 °F 30.05 in SSW 2.0 mph 4.0 mph 46% 0.00 in
01:34 43.6 °F 24.2 °F 30.05 in SSW 2.0 mph 4.0 mph 46% 0.00 in
01:39 43.6 °F 24.2 °F 30.05 in SSW 2.0 mph 3.0 mph 46% 0.00 in
01:44 43.2 °F 23.8 °F 30.05 in SSW 2.0 mph 3.0 mph 46% 0.00 in
01:49 43.0 °F 23.6 °F 30.05 in SSW 2.0 mph 4.0 mph 46% 0.00 in
01:54 42.7 °F 23.8 °F 30.05 in SSW 1.0 mph 4.0 mph 47% 0.00 in
01:59 42.5 °F 23.7 °F 30.05 in SSW 1.0 mph 3.0 mph 47% 0.00 in
02:04 42.4 °F 23.6 °F 30.05 in SSW 2.0 mph 4.0 mph 47% 0.00 in
02:09 42.5 °F 23.7 °F 30.04 in SSW 2.0 mph 4.0 mph 47% 0.00 in
02:14 42.8 °F 23.9 °F 30.04 in SSW 2.0 mph 4.0 mph 47% 0.00 in
02:19 42.7 °F 23.8 °F 30.04 in SSW 2.0 mph 4.0 mph 47% 0.00 in
02:24 42.4 °F 23.6 °F 30.04 in SSW 1.0 mph 3.0 mph 47% 0.00 in
02:29 41.9 °F 23.6 °F 30.03 in SSW 1.0 mph 3.0 mph 48% 0.00 in
02:34 41.3 °F 23.6 °F 30.04 in SSW 1.0 mph 2.0 mph 49% 0.00 in
02:39 40.6 °F 22.9 °F 30.03 in Calm   2.0 mph 49% 0.00 in
02:44 39.9 °F 22.7 °F 30.03 in Calm     50% 0.00 in
02:49 39.2 °F 23.0 °F 30.03 in Calm     52% 0.00 in
02:54 38.7 °F 23.0 °F 30.03 in Calm     53% 0.00 in
02:59 38.4 °F 22.7 °F 30.03 in Calm     53% 0.00 in
03:04 38.1 °F 22.9 °F 30.02 in Calm     54% 0.00 in
03:09 37.8 °F 23.5 °F 30.02 in Calm     56% 0.00 in
03:14 37.7 °F 23.0 °F 30.02 in Calm     55% 0.00 in
03:19 37.2 °F 22.9 °F 30.02 in Calm     56% 0.00 in
03:24 36.9 °F 23.5 °F 30.01 in Calm     58% 0.00 in
03:34 36.8 °F 23.0 °F 30.01 in Calm     57% 0.00 in
03:39 36.8 °F 23.0 °F 30.01 in Calm     57% 0.00 in
03:44 36.7 °F 22.9 °F 30.01 in Calm     57% 0.00 in
03:49 36.9 °F 23.1 °F 30.01 in Calm     57% 0.00 in
03:54 37.3 °F 23.4 °F 30.00 in Calm   1.0 mph 57% 0.00 in
04:04 37.2 °F 23.4 °F 30.00 in Calm     57% 0.00 in
04:14 36.2 °F 23.6 °F 30.00 in Calm     60% 0.00 in
04:19 35.9 °F 23.4 °F 30.00 in Calm     60% 0.00 in
04:24 36.1 °F 23.5 °F 29.99 in Calm     60% 0.00 in
04:29 36.1 °F 23.5 °F 29.99 in Calm     60% 0.00 in
04:34 36.6 °F 23.6 °F 29.99 in Calm     59% 0.00 in
04:39 36.6 °F 24.0 °F 29.99 in Calm     60% 0.00 in
04:44 36.3 °F 23.7 °F 29.99 in Calm     60% 0.00 in
04:54 36.0 °F 23.8 °F 29.98 in Calm     61% 0.00 in
04:59 35.8 °F 23.7 °F 29.98 in Calm     61% 0.00 in
05:04 35.7 °F 23.9 °F 29.98 in Calm     62% 0.00 in
05:09 35.8 °F 24.0 °F 29.97 in Calm     62% 0.00 in
05:14 35.8 °F 24.0 °F 29.97 in Calm     62% 0.00 in
05:19 35.6 °F 24.2 °F 29.97 in Calm     63% 0.00 in
05:24 35.5 °F 24.1 °F 29.97 in Calm     63% 0.00 in
05:29 36.2 °F 24.8 °F 29.97 in Calm     63% 0.00 in
05:34 37.0 °F 24.8 °F 29.97 in Calm     61% 0.00 in
05:39 37.3 °F 25.1 °F 29.97 in Calm     61% 0.00 in
05:44 37.7 °F 25.1 °F 29.96 in Calm     60% 0.00 in
05:49 38.0 °F 24.9 °F 29.96 in Calm     59% 0.00 in
05:54 38.3 °F 25.2 °F 29.96 in Calm     59% 0.00 in
05:59 38.6 °F 25.1 °F 29.96 in Calm     58% 0.00 in
06:04 38.8 °F 25.3 °F 29.95 in Calm     58% 0.00 in
06:09 38.9 °F 25.4 °F 29.95 in Calm     58% 0.00 in
06:14 38.9 °F 25.4 °F 29.95 in Calm     58% 0.00 in
06:19 38.9 °F 25.4 °F 29.95 in Calm     58% 0.00 in
06:24 38.9 °F 25.4 °F 29.95 in Calm     58% 0.00 in
06:29 38.9 °F 25.8 °F 29.95 in Calm     59% 0.00 in
06:34 39.0 °F 25.9 °F 29.95 in Calm     59% 0.00 in
06:39 39.2 °F 26.1 °F 29.95 in Calm     59% 0.00 in
06:44 39.2 °F 26.1 °F 29.95 in Calm     59% 0.00 in
06:49 39.3 °F 26.6 °F 29.95 in Calm     60% 0.00 in
06:54 39.4 °F 26.7 °F 29.95 in Calm     60% 0.00 in
06:59 39.5 °F 26.3 °F 29.94 in Calm   2.0 mph 59% 0.00 in
07:04 39.7 °F 26.5 °F 29.94 in Calm   2.0 mph 59% 0.00 in
07:09 39.7 °F 26.5 °F 29.94 in Calm   2.0 mph 59% 0.00 in
07:14 39.9 °F 26.7 °F 29.94 in Calm   2.0 mph 59% 0.00 in
07:19 40.3 °F 27.1 °F 29.94 in Calm   2.0 mph 59% 0.00 in
07:24 40.6 °F 27.0 °F 29.93 in Calm     58% 0.00 in
07:29 40.9 °F 27.2 °F 29.93 in Calm     58% 0.00 in
07:34 41.2 °F 27.1 °F 29.93 in Calm     57% 0.00 in
07:39 41.4 °F 27.3 °F 29.93 in Calm     57% 0.00 in
07:44 42.1 °F 27.1 °F 29.93 in Calm   2.0 mph 55% 0.00 in
07:49 42.9 °F 27.4 °F 29.93 in Calm   2.0 mph 54% 0.00 in
07:54 43.3 °F 27.3 °F 29.93 in Calm     53% 0.00 in
07:59 43.8 °F 27.3 °F 29.93 in SSW 1.0 mph 3.0 mph 52% 0.00 in
08:04 44.2 °F 27.7 °F 29.93 in SSW 2.0 mph 3.0 mph 52% 0.00 in
08:09 44.5 °F 28.0 °F 29.93 in SSW 1.0 mph 4.0 mph 52% 0.00 in
08:14 45.0 °F 27.5 °F 29.93 in South 2.0 mph 5.0 mph 50% 0.00 in
08:19 45.8 °F 26.7 °F 29.92 in South 2.0 mph 5.0 mph 47% 0.00 in
08:24 46.5 °F 27.3 °F 29.92 in South 3.0 mph 4.0 mph 47% 0.00 in
08:29 46.9 °F 27.2 °F 29.92 in SSE 3.0 mph 7.0 mph 46% 0.00 in
08:34 47.1 °F 26.8 °F 29.92 in South 3.0 mph 8.0 mph 45% 0.00 in
08:39 47.4 °F 26.6 °F 29.92 in South 2.0 mph 6.0 mph 44% 0.00 in
08:44 47.8 °F 27.5 °F 29.92 in South 4.0 mph 7.0 mph 45% 0.00 in
08:49 48.2 °F 27.3 °F 29.92 in South 4.0 mph 7.0 mph 44% 0.00 in
08:54 48.3 °F 27.4 °F 29.91 in South 4.0 mph 8.0 mph 44% 0.00 in
08:59 48.3 °F 26.8 °F 29.91 in South 3.0 mph 10.0 mph 43% 0.00 in
09:04 48.3 °F 27.4 °F 29.91 in South 4.0 mph 7.0 mph 44% 0.00 in
09:09 48.5 °F 27.6 °F 29.90 in SSE 6.0 mph 10.0 mph 44% 0.00 in
09:14 48.7 °F 27.7 °F 29.90 in SSW 7.0 mph 9.0 mph 44% 0.00 in
09:19 49.1 °F 27.5 °F 29.90 in South 5.0 mph 9.0 mph 43% 0.00 in
09:24 49.3 °F 27.7 °F 29.89 in South 4.0 mph 8.0 mph 43% 0.00 in
09:29 49.4 °F 27.8 °F 29.89 in South 4.0 mph 9.0 mph 43% 0.00 in
09:34 49.6 °F 28.0 °F 29.89 in South 6.0 mph 10.0 mph 43% 0.00 in
09:39 50.1 °F 29.0 °F 29.89 in South 4.0 mph 7.0 mph 44% 0.00 in
09:44 50.7 °F 29.0 °F 29.88 in SSW 4.0 mph 8.0 mph 43% 0.00 in
09:49 51.5 °F 29.7 °F 29.88 in South 6.0 mph 8.0 mph 43% 0.00 in
09:54 52.1 °F 29.1 °F 29.88 in South 4.0 mph 9.0 mph 41% 0.00 in
09:59 52.2 °F 29.2 °F 29.88 in South 4.0 mph 9.0 mph 41% 0.00 in
10:04 52.1 °F 29.7 °F 29.87 in South 5.0 mph 9.0 mph 42% 0.00 in
10:09 53.0 °F 30.5 °F 29.87 in SSW 3.0 mph 10.0 mph 42% 0.00 in
10:14 53.7 °F 29.9 °F 29.86 in SSW 5.0 mph 12.0 mph 40% 0.00 in
10:19 54.7 °F 32.0 °F 29.86 in SSW 3.0 mph 9.0 mph 42% 0.00 in
10:24 55.9 °F 32.5 °F 29.86 in WSW 4.0 mph 9.0 mph 41% 0.00 in
10:29 56.2 °F 31.5 °F 29.86 in SSW 4.0 mph 10.0 mph 39% 0.00 in
10:34 55.1 °F 31.8 °F 29.86 in SSW 5.0 mph 13.0 mph 41% 0.00 in
10:39 55.4 °F 32.1 °F 29.85 in SSW 6.0 mph 13.0 mph 41% 0.00 in
10:44 56.7 °F 32.6 °F 29.85 in SSW 5.0 mph 14.0 mph 40% 0.00 in
10:49 57.6 °F 33.4 °F 29.85 in SSW 6.0 mph 10.0 mph 40% 0.00 in
10:59 58.8 °F 32.6 °F 29.84 in SW 6.0 mph 16.0 mph 37% 0.00 in
11:04 58.9 °F 32.7 °F 29.84 in SW 7.0 mph 16.0 mph 37% 0.00 in
11:09 58.7 °F 32.5 °F 29.84 in SW 8.0 mph 17.0 mph 37% 0.00 in
11:14 59.2 °F 32.9 °F 29.83 in SW 8.0 mph 12.0 mph 37% 0.00 in
11:19 59.7 °F 34.0 °F 29.84 in SSW 7.0 mph 15.0 mph 38% 0.00 in
11:24 59.4 °F 33.1 °F 29.84 in SW 9.0 mph 17.0 mph 37% 0.00 in
11:29 59.8 °F 34.1 °F 29.84 in SW 7.0 mph 18.0 mph 38% 0.00 in
11:34 60.1 °F 33.7 °F 29.84 in SSW 8.0 mph 21.0 mph 37% 0.00 in
11:39 60.1 °F 33.7 °F 29.84 in SW 1.0 mph 16.0 mph 37% 0.00 in
11:44 60.4 °F 34.0 °F 29.84 in WSW 8.0 mph 15.0 mph 37% 0.00 in
11:49 59.9 °F 33.5 °F 29.83 in SW 15.0 mph 18.0 mph 37% 0.00 in
11:54 59.5 °F 33.9 °F 29.83 in WSW 11.0 mph 17.0 mph 38% 0.00 in
11:59 59.4 °F 33.8 °F 29.83 in SW 10.0 mph 18.0 mph 38% 0.00 in
12:04 59.4 °F 33.8 °F 29.82 in SW 9.0 mph 18.0 mph 38% 0.00 in
12:09 59.9 °F 34.2 °F 29.82 in SW 4.0 mph 14.0 mph 38% 0.00 in
12:14 60.1 °F 35.7 °F 29.82 in SW 7.0 mph 16.0 mph 40% 0.00 in
12:19 59.9 °F 34.2 °F 29.82 in SW 9.0 mph 18.0 mph 38% 0.00 in
12:24 59.2 °F 34.2 °F 29.82 in SW 11.0 mph 21.0 mph 39% 0.00 in
12:29 59.2 °F 34.2 °F 29.82 in SW 10.0 mph 23.0 mph 39% 0.00 in
12:34 59.0 °F 34.1 °F 29.82 in SW 8.0 mph 22.0 mph 39% 0.00 in
12:39 59.2 °F 34.9 °F 29.82 in West 14.0 mph 22.0 mph 40% 0.00 in
12:44 58.4 °F 34.2 °F 29.82 in WNW 12.0 mph 24.0 mph 40% 0.00 in
12:49 57.5 °F 34.6 °F 29.82 in WSW 12.0 mph 27.0 mph 42% 0.00 in
12:59 56.9 °F 34.6 °F 29.82 in WSW 19.0 mph 19.0 mph 43% 0.00 in
13:04 56.4 °F 34.2 °F 29.83 in West 10.0 mph 22.0 mph 43% 0.00 in
13:09 56.0 °F 34.4 °F 29.82 in West 7.0 mph 21.0 mph 44% 0.00 in
13:14 55.4 °F 34.4 °F 29.82 in SW 16.0 mph 24.0 mph 45% 0.00 in
13:19 54.9 °F 34.5 °F 29.82 in WSW 11.0 mph 22.0 mph 46% 0.00 in
13:24 54.4 °F 35.6 °F 29.83 in WSW 12.0 mph 24.0 mph 49% 0.00 in
13:29 53.4 °F 35.2 °F 29.83 in WSW 11.0 mph 24.0 mph 50% 0.00 in
13:34 52.4 °F 35.8 °F 29.83 in WSW 11.0 mph 22.0 mph 53% 0.00 in
13:39 51.7 °F 35.6 °F 29.83 in WSW 12.0 mph 23.0 mph 54% 0.00 in
13:44 51.1 °F 35.9 °F 29.83 in SW 13.0 mph 26.0 mph 56% 0.00 in
13:49 49.5 °F 37.8 °F 29.83 in West 9.0 mph 24.0 mph 64% 0.00 in
13:54 47.9 °F 37.8 °F 29.83 in WSW 11.0 mph 20.0 mph 68% 0.00 in
13:59 47.1 °F 38.2 °F 29.83 in WSW 11.0 mph 21.0 mph 71% 0.00 in
14:04 46.4 °F 38.2 °F 29.83 in WSW 11.0 mph 21.0 mph 73% 0.00 in
14:09 45.7 °F 38.6 °F 29.83 in West 10.0 mph 19.0 mph 76% 0.01 in
14:14 45.5 °F 39.0 °F 29.83 in WNW 10.0 mph 17.0 mph 78% 0.01 in
14:19 45.6 °F 39.8 °F 29.83 in West 9.0 mph 20.0 mph 80% 0.01 in
14:24 45.6 °F 40.1 °F 29.84 in WSW 11.0 mph 22.0 mph 81% 0.01 in
14:29 45.5 °F 40.0 °F 29.83 in WSW 11.0 mph 22.0 mph 81% 0.01 in
14:34 45.3 °F 40.1 °F 29.83 in WSW 11.0 mph 22.0 mph 82% 0.01 in
14:39 45.3 °F 40.1 °F 29.83 in WSW 10.0 mph 18.0 mph 82% 0.02 in
14:44 45.2 °F 40.3 °F 29.83 in WSW 9.0 mph 18.0 mph 83% 0.02 in
14:49 45.3 °F 40.4 °F 29.83 in WSW 8.0 mph 18.0 mph 83% 0.02 in
14:54 45.2 °F 40.3 °F 29.83 in WSW 8.0 mph 18.0 mph 83% 0.02 in
14:59 45.2 °F 40.7 °F 29.83 in South 9.0 mph 18.0 mph 84% 0.02 in
15:04 45.0 °F 40.5 °F 29.83 in West 7.0 mph 17.0 mph 84% 0.02 in
15:09 44.8 °F 40.3 °F 29.82 in West 9.0 mph 18.0 mph 84% 0.01 in
15:14 44.6 °F 40.1 °F 29.82 in WSW 6.0 mph 14.0 mph 84% 0.01 in
15:19 44.6 °F 40.4 °F 29.82 in SW 7.0 mph 16.0 mph 85% 0.01 in
15:24 44.8 °F 40.6 °F 29.82 in WSW 7.0 mph 18.0 mph 85% 0.01 in
15:29 45.2 °F 41.3 °F 29.82 in WSW 11.0 mph 27.0 mph 86% 0.01 in
15:39 45.5 °F 41.9 °F 29.82 in SW 11.0 mph 22.0 mph 87% 0.00 in
15:44 45.8 °F 42.4 °F 29.82 in SW 11.0 mph 22.0 mph 88% 0.00 in
15:49 46.2 °F 42.8 °F 29.82 in SW 10.0 mph 22.0 mph 88% 0.00 in
15:54 46.0 °F 42.3 °F 29.82 in SSW 7.0 mph 16.0 mph 87% 0.00 in
15:59 44.8 °F 40.9 °F 29.82 in SW 11.0 mph 17.0 mph 86% 0.00 in
16:04 44.1 °F 40.5 °F 29.82 in SW 6.0 mph 13.0 mph 87% 0.00 in
16:09 43.8 °F 40.2 °F 29.82 in WSW 5.0 mph 10.0 mph 87% 0.00 in
16:14 43.8 °F 40.5 °F 29.81 in SW 5.0 mph 11.0 mph 88% 0.00 in
16:24 44.3 °F 41.0 °F 29.81 in South 9.0 mph 12.0 mph 88% 0.00 in
16:29 44.8 °F 41.5 °F 29.81 in SW 9.0 mph 15.0 mph 88% 0.00 in
16:34 45.2 °F 41.6 °F 29.81 in SW 6.0 mph 13.0 mph 87% 0.00 in
16:39 45.6 °F 42.0 °F 29.81 in SW 12.0 mph 17.0 mph 87% 0.00 in
16:44 45.9 °F 41.9 °F 29.81 in SW 8.0 mph 17.0 mph 86% 0.00 in
16:49 46.0 °F 41.7 °F 29.81 in SW 7.0 mph 17.0 mph 85% 0.00 in
16:54 46.0 °F 41.7 °F 29.81 in SW 7.0 mph 16.0 mph 85% 0.00 in
16:59 46.1 °F 41.5 °F 29.81 in SW 7.0 mph 16.0 mph 84% 0.00 in
17:04 46.5 °F 41.9 °F 29.81 in WSW 7.0 mph 13.0 mph 84% 0.00 in
17:09 47.0 °F 42.1 °F 29.81 in South 9.0 mph 17.0 mph 83% 0.00 in
17:14 47.5 °F 42.6 °F 29.81 in WSW 8.0 mph 14.0 mph 83% 0.00 in
17:19 47.8 °F 42.6 °F 29.82 in SW 7.0 mph 15.0 mph 82% 0.00 in
17:24 48.1 °F 42.5 °F 29.81 in SW 8.0 mph 15.0 mph 81% 0.00 in
17:29 48.3 °F 42.7 °F 29.82 in SW 8.0 mph 15.0 mph 81% 0.00 in
17:34 48.5 °F 42.9 °F 29.81 in SW 12.0 mph 16.0 mph 81% 0.00 in
17:39 48.6 °F 42.7 °F 29.81 in SW 10.0 mph 17.0 mph 80% 0.00 in
17:44 48.6 °F 42.7 °F 29.82 in West 10.0 mph 14.0 mph 80% 0.00 in
17:49 48.5 °F 42.6 °F 29.82 in SSW 4.0 mph 17.0 mph 80% 0.00 in
17:54 48.3 °F 42.1 °F 29.82 in WSW 8.0 mph 17.0 mph 79% 0.00 in
17:59 48.1 °F 41.9 °F 29.82 in SW 4.0 mph 13.0 mph 79% 0.00 in
18:04 48.0 °F 41.8 °F 29.83 in WSW 6.0 mph 13.0 mph 79% 0.00 in
18:09 48.0 °F 42.1 °F 29.83 in WSW 6.0 mph 14.0 mph 80% 0.00 in
18:14 48.1 °F 42.2 °F 29.83 in SW 9.0 mph 14.0 mph 80% 0.00 in
18:19 48.3 °F 42.4 °F 29.83 in WSW 8.0 mph 16.0 mph 80% 0.01 in
18:24 48.4 °F 42.5 °F 29.83 in SW 12.0 mph 15.0 mph 80% 0.01 in
18:29 48.5 °F 42.6 °F 29.83 in WSW 11.0 mph 15.0 mph 80% 0.01 in
18:34 48.3 °F 42.1 °F 29.83 in WSW 8.0 mph 18.0 mph 79% 0.01 in
18:39 48.3 °F 41.8 °F 29.83 in WSW 9.0 mph 22.0 mph 78% 0.01 in
18:44 48.0 °F 41.5 °F 29.83 in WSW 10.0 mph 22.0 mph 78% 0.01 in
18:49 47.8 °F 41.3 °F 29.83 in WSW 9.0 mph 20.0 mph 78% 0.01 in
18:54 47.4 °F 40.9 °F 29.83 in West 8.0 mph 19.0 mph 78% 0.01 in
18:59 47.3 °F 40.8 °F 29.83 in WNW 11.0 mph 17.0 mph 78% 0.01 in
19:04 47.0 °F 40.5 °F 29.83 in West 10.0 mph 15.0 mph 78% 0.01 in
19:09 46.8 °F 40.3 °F 29.83 in WSW 5.0 mph 12.0 mph 78% 0.01 in
19:14 46.4 °F 40.2 °F 29.83 in West 7.0 mph 12.0 mph 79% 0.01 in
19:19 46.1 °F 39.9 °F 29.84 in WSW 6.0 mph 12.0 mph 79% 0.00 in
19:24 45.8 °F 39.7 °F 29.84 in WSW 7.0 mph 12.0 mph 79% 0.00 in
19:29 45.6 °F 39.8 °F 29.83 in WSW 5.0 mph 13.0 mph 80% 0.00 in
19:34 45.5 °F 39.7 °F 29.83 in West 11.0 mph 15.0 mph 80% 0.00 in
19:39 45.5 °F 39.7 °F 29.84 in WSW 7.0 mph 15.0 mph 80% 0.00 in
19:44 45.5 °F 39.7 °F 29.84 in WSW 8.0 mph 15.0 mph 80% 0.00 in
19:49 45.5 °F 39.7 °F 29.84 in WSW 8.0 mph 14.0 mph 80% 0.00 in
19:54 45.5 °F 39.7 °F 29.84 in WSW 3.0 mph 13.0 mph 80% 0.00 in
19:59 45.3 °F 39.5 °F 29.85 in WSW 6.0 mph 10.0 mph 80% 0.00 in
20:04 45.1 °F 39.3 °F 29.85 in WSW 8.0 mph 13.0 mph 80% 0.00 in
20:09 44.8 °F 39.0 °F 29.85 in WSW 10.0 mph 10.0 mph 80% 0.00 in
20:14 44.6 °F 39.1 °F 29.85 in WSW 5.0 mph 10.0 mph 81% 0.00 in
20:19 44.5 °F 39.0 °F 29.85 in WSW 5.0 mph 6.0 mph 81% 0.00 in
20:24 44.6 °F 39.4 °F 29.85 in WSW 4.0 mph 6.0 mph 82% 0.00 in
20:29 44.8 °F 39.6 °F 29.85 in West 3.0 mph 6.0 mph 82% 0.00 in
20:34 44.9 °F 39.7 °F 29.85 in WSW 5.0 mph 7.0 mph 82% 0.00 in
20:39 45.2 °F 40.0 °F 29.86 in West 2.0 mph 6.0 mph 82% 0.00 in
20:44 45.4 °F 40.2 °F 29.86 in West 3.0 mph 6.0 mph 82% 0.00 in
20:49 45.5 °F 40.3 °F 29.86 in West 2.0 mph 6.0 mph 82% 0.00 in
20:54 45.6 °F 40.7 °F 29.86 in West 2.0 mph 7.0 mph 83% 0.00 in
20:59 45.6 °F 40.4 °F 29.86 in West 4.0 mph 6.0 mph 82% 0.00 in
21:04 45.6 °F 40.4 °F 29.85 in WNW 1.0 mph 6.0 mph 82% 0.00 in
21:09 45.6 °F 40.4 °F 29.85 in West 3.0 mph 6.0 mph 82% 0.00 in
21:14 45.5 °F 40.6 °F 29.85 in WSW 2.0 mph 6.0 mph 83% 0.00 in
21:19 45.4 °F 40.5 °F 29.86 in Calm   3.0 mph 83% 0.00 in
21:24 45.2 °F 40.3 °F 29.86 in WSW 1.0 mph 3.0 mph 83% 0.00 in
21:29 44.7 °F 39.5 °F 29.86 in Calm   3.0 mph 82% 0.00 in
21:34 43.6 °F 38.5 °F 29.86 in WSW 1.0 mph 4.0 mph 82% 0.00 in
21:39 42.9 °F 38.1 °F 29.86 in SW 3.0 mph 4.0 mph 83% 0.00 in
21:44 42.2 °F 37.4 °F 29.86 in SSW 2.0 mph 5.0 mph 83% 0.00 in
21:49 41.6 °F 37.1 °F 29.86 in SSW 2.0 mph 5.0 mph 84% 0.00 in
21:54 41.4 °F 36.9 °F 29.86 in Calm   3.0 mph 84% 0.00 in
21:59 41.1 °F 36.9 °F 29.86 in Calm   3.0 mph 85% 0.00 in
22:04 40.8 °F 36.6 °F 29.86 in Calm   3.0 mph 85% 0.00 in
22:09 40.4 °F 36.2 °F 29.87 in SSW 1.0 mph 3.0 mph 85% 0.00 in
22:14 40.3 °F 36.1 °F 29.87 in SSW 2.0 mph 4.0 mph 85% 0.00 in
22:19 40.1 °F 36.2 °F 29.87 in SSW 1.0 mph 4.0 mph 86% 0.00 in
22:24 40.0 °F 36.2 °F 29.88 in Calm   3.0 mph 86% 0.00 in
22:29 39.9 °F 36.1 °F 29.88 in SSW 1.0 mph 3.0 mph 86% 0.00 in
22:34 39.9 °F 36.1 °F 29.88 in SSW 1.0 mph 3.0 mph 86% 0.00 in
22:39 39.9 °F 36.1 °F 29.88 in Calm     86% 0.00 in
22:44 39.9 °F 36.3 °F 29.88 in Calm     87% 0.00 in
22:49 39.9 °F 36.3 °F 29.88 in Calm   5.0 mph 87% 0.00 in
22:54 40.3 °F 36.7 °F 29.88 in NW 3.0 mph 5.0 mph 87% 0.00 in
22:59 41.1 °F 37.2 °F 29.88 in NNW 2.0 mph 7.0 mph 86% 0.00 in
23:04 41.7 °F 37.2 °F 29.88 in North 3.0 mph 7.0 mph 84% 0.00 in
23:09 42.0 °F 36.6 °F 29.88 in North 3.0 mph 7.0 mph 81% 0.00 in
23:14 42.2 °F 36.2 °F 29.89 in North 4.0 mph 8.0 mph 79% 0.00 in
23:19 42.2 °F 35.5 °F 29.89 in North 4.0 mph 8.0 mph 77% 0.00 in
23:24 42.0 °F 35.3 °F 29.89 in NNW 5.0 mph 6.0 mph 77% 0.00 in
23:29 41.8 °F 34.8 °F 29.89 in North 3.0 mph 7.0 mph 76% 0.00 in
23:34 41.6 °F 34.9 °F 29.89 in North 3.0 mph 8.0 mph 77% 0.00 in
23:39 41.2 °F 34.5 °F 29.89 in NNW 4.0 mph 8.0 mph 77% 0.00 in
23:44 41.1 °F 34.4 °F 29.90 in North 4.0 mph 7.0 mph 77% 0.00 in
23:49 41.0 °F 34.7 °F 29.90 in NE 5.0 mph 5.0 mph 78% 0.00 in
23:54 40.8 °F 34.5 °F 29.91 in NNE 1.0 mph 5.0 mph 78% 0.00 in
23:59 40.5 °F 34.2 °F 29.91 in NNE 2.0 mph 4.0 mph 78% 0.00 in
Buffalo, New York, USA
Compliments of Weather Underground - 2.5 mb